sensor_id;sensor_type;location;lat;lon;timestamp;pressure;altitude;pressure_sealevel;temperature;humidity
11124;BME280;5616;42.692;23.312;2022-07-22T00:00:06;95166.13;;;23.55;53.22
11124;BME280;5616;42.692;23.312;2022-07-22T00:02:35;95169.53;;;23.51;53.09
11124;BME280;5616;42.692;23.312;2022-07-22T00:05:03;95152.91;;;23.45;53.10
11124;BME280;5616;42.692;23.312;2022-07-22T00:07:30;95169.16;;;23.32;53.17
11124;BME280;5616;42.692;23.312;2022-07-22T00:09:58;95171.47;;;23.19;53.41
11124;BME280;5616;42.692;23.312;2022-07-22T00:12:25;95168.66;;;23.30;53.03
11124;BME280;5616;42.692;23.312;2022-07-22T00:14:52;95170.53;;;23.40;52.93
11124;BME280;5616;42.692;23.312;2022-07-22T00:17:18;95174.00;;;23.50;52.51
11124;BME280;5616;42.692;23.312;2022-07-22T00:19:47;95166.38;;;23.49;52.35
11124;BME280;5616;42.692;23.312;2022-07-22T00:22:14;95171.13;;;23.47;52.55
11124;BME280;5616;42.692;23.312;2022-07-22T00:24:41;95180.25;;;23.34;52.22
11124;BME280;5616;42.692;23.312;2022-07-22T00:27:08;95165.88;;;23.05;52.96
11124;BME280;5616;42.692;23.312;2022-07-22T00:29:35;95172.41;;;22.92;53.57
11124;BME280;5616;42.692;23.312;2022-07-22T00:32:02;95181.75;;;22.73;54.10
11124;BME280;5616;42.692;23.312;2022-07-22T00:34:29;95184.91;;;22.70;54.52
11124;BME280;5616;42.692;23.312;2022-07-22T00:36:57;95183.38;;;22.79;54.37
11124;BME280;5616;42.692;23.312;2022-07-22T00:39:24;95183.09;;;22.76;54.46
11124;BME280;5616;42.692;23.312;2022-07-22T00:41:51;95186.28;;;22.78;54.61
11124;BME280;5616;42.692;23.312;2022-07-22T00:44:18;95184.97;;;22.80;54.51
11124;BME280;5616;42.692;23.312;2022-07-22T00:46:45;95192.38;;;22.83;53.82
11124;BME280;5616;42.692;23.312;2022-07-22T00:49:12;95191.56;;;22.83;53.57
11124;BME280;5616;42.692;23.312;2022-07-22T00:51:39;95185.19;;;22.74;53.85
11124;BME280;5616;42.692;23.312;2022-07-22T00:54:08;95180.38;;;22.66;54.05
11124;BME280;5616;42.692;23.312;2022-07-22T00:56:35;95187.97;;;22.62;54.52
11124;BME280;5616;42.692;23.312;2022-07-22T00:59:06;95181.44;;;22.65;54.26
11124;BME280;5616;42.692;23.312;2022-07-22T01:01:34;95185.59;;;22.61;54.58
11124;BME280;5616;42.692;23.312;2022-07-22T01:04:01;95179.41;;;22.45;55.13
11124;BME280;5616;42.692;23.312;2022-07-22T01:06:28;95172.75;;;22.32;55.82
11124;BME280;5616;42.692;23.312;2022-07-22T01:08:56;95175.66;;;22.31;56.25
11124;BME280;5616;42.692;23.312;2022-07-22T01:11:24;95190.13;;;22.33;56.58
11124;BME280;5616;42.692;23.312;2022-07-22T01:13:52;95179.31;;;22.30;56.42
11124;BME280;5616;42.692;23.312;2022-07-22T01:16:20;95184.50;;;22.20;56.48
11124;BME280;5616;42.692;23.312;2022-07-22T01:18:47;95187.53;;;22.07;57.30
11124;BME280;5616;42.692;23.312;2022-07-22T01:21:16;95182.22;;;22.02;57.49
11124;BME280;5616;42.692;23.312;2022-07-22T01:23:44;95182.81;;;22.09;57.24
11124;BME280;5616;42.692;23.312;2022-07-22T01:26:11;95185.09;;;22.00;57.26
11124;BME280;5616;42.692;23.312;2022-07-22T01:28:38;95188.16;;;21.92;57.68
11124;BME280;5616;42.692;23.312;2022-07-22T01:31:05;95184.81;;;21.97;57.17
11124;BME280;5616;42.692;23.312;2022-07-22T01:33:32;95177.91;;;21.90;57.71
11124;BME280;5616;42.692;23.312;2022-07-22T01:36:00;95184.91;;;22.07;57.32
11124;BME280;5616;42.692;23.312;2022-07-22T01:38:28;95183.88;;;22.13;57.08
11124;BME280;5616;42.692;23.312;2022-07-22T01:40:55;95181.56;;;22.16;56.51
11124;BME280;5616;42.692;23.312;2022-07-22T01:43:22;95180.78;;;22.21;57.02
11124;BME280;5616;42.692;23.312;2022-07-22T01:45:51;95179.69;;;22.12;56.61
11124;BME280;5616;42.692;23.312;2022-07-22T01:48:20;95181.06;;;21.92;56.74
11124;BME280;5616;42.692;23.312;2022-07-22T01:50:48;95187.34;;;21.91;56.87
11124;BME280;5616;42.692;23.312;2022-07-22T01:53:16;95175.75;;;21.87;57.11
11124;BME280;5616;42.692;23.312;2022-07-22T01:55:46;95185.25;;;21.88;57.18
11124;BME280;5616;42.692;23.312;2022-07-22T01:58:15;95191.53;;;21.87;57.35
11124;BME280;5616;42.692;23.312;2022-07-22T02:00:42;95192.38;;;21.93;57.14
11124;BME280;5616;42.692;23.312;2022-07-22T02:03:10;95195.59;;;22.00;57.00
11124;BME280;5616;42.692;23.312;2022-07-22T02:05:37;95190.78;;;21.92;57.22
11124;BME280;5616;42.692;23.312;2022-07-22T02:08:14;95191.84;;;21.69;57.73
11124;BME280;5616;42.692;23.312;2022-07-22T02:11:08;95196.13;;;21.75;57.38
11124;BME280;5616;42.692;23.312;2022-07-22T02:13:45;95204.13;;;21.85;57.90
11124;BME280;5616;42.692;23.312;2022-07-22T02:16:12;95202.84;;;21.88;57.44
11124;BME280;5616;42.692;23.312;2022-07-22T02:18:39;95195.72;;;21.62;58.43
11124;BME280;5616;42.692;23.312;2022-07-22T02:21:08;95197.00;;;21.59;58.67
11124;BME280;5616;42.692;23.312;2022-07-22T02:23:35;95207.13;;;21.51;59.42
11124;BME280;5616;42.692;23.312;2022-07-22T02:26:03;95194.31;;;21.54;59.00
11124;BME280;5616;42.692;23.312;2022-07-22T02:28:31;95205.75;;;21.65;59.49
11124;BME280;5616;42.692;23.312;2022-07-22T02:30:59;95196.31;;;21.47;59.82
11124;BME280;5616;42.692;23.312;2022-07-22T02:33:26;95204.47;;;21.46;60.35
11124;BME280;5616;42.692;23.312;2022-07-22T02:35:55;95198.78;;;21.32;60.29
11124;BME280;5616;42.692;23.312;2022-07-22T02:38:23;95207.13;;;21.29;60.46
11124;BME280;5616;42.692;23.312;2022-07-22T02:40:49;95193.50;;;21.32;59.98
11124;BME280;5616;42.692;23.312;2022-07-22T02:43:16;95199.59;;;21.16;61.18
11124;BME280;5616;42.692;23.312;2022-07-22T02:45:45;95199.53;;;21.11;61.14
11124;BME280;5616;42.692;23.312;2022-07-22T02:48:12;95205.97;;;21.20;61.30
11124;BME280;5616;42.692;23.312;2022-07-22T02:50:45;95203.59;;;21.18;61.76
11124;BME280;5616;42.692;23.312;2022-07-22T02:53:13;95198.59;;;21.00;62.48
11124;BME280;5616;42.692;23.312;2022-07-22T02:55:40;95200.28;;;21.06;62.59
11124;BME280;5616;42.692;23.312;2022-07-22T02:58:09;95194.22;;;20.89;63.24
11124;BME280;5616;42.692;23.312;2022-07-22T03:00:37;95196.63;;;20.91;63.31
11124;BME280;5616;42.692;23.312;2022-07-22T03:03:06;95201.22;;;21.00;62.92
11124;BME280;5616;42.692;23.312;2022-07-22T03:05:33;95202.44;;;21.09;62.25
11124;BME280;5616;42.692;23.312;2022-07-22T03:08:15;95196.22;;;20.99;62.96
11124;BME280;5616;42.692;23.312;2022-07-22T03:10:43;95201.81;;;20.86;63.77
11124;BME280;5616;42.692;23.312;2022-07-22T03:13:10;95197.97;;;20.93;63.46
11124;BME280;5616;42.692;23.312;2022-07-22T03:15:37;95205.13;;;20.98;63.50
11124;BME280;5616;42.692;23.312;2022-07-22T03:18:06;95199.81;;;20.76;64.32
11124;BME280;5616;42.692;23.312;2022-07-22T03:20:33;95210.25;;;20.71;64.05
11124;BME280;5616;42.692;23.312;2022-07-22T03:23:00;95210.31;;;20.76;64.10
11124;BME280;5616;42.692;23.312;2022-07-22T03:25:27;95206.06;;;20.92;63.61
11124;BME280;5616;42.692;23.312;2022-07-22T03:27:56;95207.34;;;20.89;63.44
11124;BME280;5616;42.692;23.312;2022-07-22T03:30:23;95199.72;;;20.88;62.80
11124;BME280;5616;42.692;23.312;2022-07-22T03:32:50;95202.34;;;21.04;62.52
11124;BME280;5616;42.692;23.312;2022-07-22T03:35:19;95207.44;;;21.11;62.02
11124;BME280;5616;42.692;23.312;2022-07-22T03:37:47;95202.00;;;21.17;62.11
11124;BME280;5616;42.692;23.312;2022-07-22T03:40:15;95210.78;;;21.06;62.13
11124;BME280;5616;42.692;23.312;2022-07-22T03:42:43;95214.00;;;20.97;63.23
11124;BME280;5616;42.692;23.312;2022-07-22T03:45:10;95216.75;;;21.02;63.27
11124;BME280;5616;42.692;23.312;2022-07-22T03:47:39;95222.09;;;21.07;62.95
11124;BME280;5616;42.692;23.312;2022-07-22T03:50:07;95220.00;;;20.92;63.38
11124;BME280;5616;42.692;23.312;2022-07-22T03:52:36;95217.22;;;20.82;63.64
11124;BME280;5616;42.692;23.312;2022-07-22T03:55:06;95222.25;;;20.67;63.50
11124;BME280;5616;42.692;23.312;2022-07-22T03:57:34;95227.31;;;20.90;61.97
11124;BME280;5616;42.692;23.312;2022-07-22T04:00:21;95226.53;;;21.06;61.07
11124;BME280;5616;42.692;23.312;2022-07-22T04:02:49;95233.28;;;21.19;60.83
11124;BME280;5616;42.692;23.312;2022-07-22T04:05:38;95231.81;;;21.28;60.19
11124;BME280;5616;42.692;23.312;2022-07-22T04:08:08;95230.97;;;21.22;60.02
11124;BME280;5616;42.692;23.312;2022-07-22T04:10:35;95229.81;;;21.35;59.54
11124;BME280;5616;42.692;23.312;2022-07-22T04:13:02;95244.84;;;21.40;58.44
11124;BME280;5616;42.692;23.312;2022-07-22T04:15:44;95237.88;;;21.50;58.05
11124;BME280;5616;42.692;23.312;2022-07-22T04:18:11;95239.75;;;21.55;58.09
11124;BME280;5616;42.692;23.312;2022-07-22T04:20:38;95240.34;;;21.57;58.58
11124;BME280;5616;42.692;23.312;2022-07-22T04:23:25;95237.25;;;21.43;58.59
11124;BME280;5616;42.692;23.312;2022-07-22T04:26:02;95240.38;;;21.40;59.47
11124;BME280;5616;42.692;23.312;2022-07-22T04:28:33;95232.44;;;21.57;58.25
11124;BME280;5616;42.692;23.312;2022-07-22T04:31:00;95239.91;;;21.65;57.40
11124;BME280;5616;42.692;23.312;2022-07-22T04:33:28;95243.34;;;21.70;57.31
11124;BME280;5616;42.692;23.312;2022-07-22T04:35:55;95243.97;;;21.77;56.94
11124;BME280;5616;42.692;23.312;2022-07-22T04:38:22;95254.06;;;21.85;57.03
11124;BME280;5616;42.692;23.312;2022-07-22T04:40:57;95253.53;;;21.83;58.15
11124;BME280;5616;42.692;23.312;2022-07-22T04:43:24;95254.16;;;21.90;58.61
11124;BME280;5616;42.692;23.312;2022-07-22T04:45:51;95267.22;;;21.85;59.33
11124;BME280;5616;42.692;23.312;2022-07-22T04:48:18;95250.59;;;22.02;58.72
11124;BME280;5616;42.692;23.312;2022-07-22T04:50:46;95256.00;;;22.17;58.49
11124;BME280;5616;42.692;23.312;2022-07-22T04:53:14;95260.88;;;22.30;56.56
11124;BME280;5616;42.692;23.312;2022-07-22T04:55:40;95266.19;;;22.35;56.53
11124;BME280;5616;42.692;23.312;2022-07-22T04:58:10;95262.50;;;22.36;57.24
11124;BME280;5616;42.692;23.312;2022-07-22T05:00:37;95265.28;;;22.51;56.15
11124;BME280;5616;42.692;23.312;2022-07-22T05:03:04;95266.25;;;22.72;55.68
11124;BME280;5616;42.692;23.312;2022-07-22T05:05:31;95265.34;;;22.88;53.66
11124;BME280;5616;42.692;23.312;2022-07-22T05:07:58;95266.13;;;22.88;54.27
11124;BME280;5616;42.692;23.312;2022-07-22T05:10:27;95269.94;;;23.07;54.61
11124;BME280;5616;42.692;23.312;2022-07-22T05:12:54;95273.59;;;23.01;55.09
11124;BME280;5616;42.692;23.312;2022-07-22T05:15:22;95274.94;;;23.04;54.50
11124;BME280;5616;42.692;23.312;2022-07-22T05:17:49;95276.19;;;23.33;53.62
11124;BME280;5616;42.692;23.312;2022-07-22T05:20:21;95262.78;;;23.40;54.13
11124;BME280;5616;42.692;23.312;2022-07-22T05:22:48;95264.44;;;23.56;54.31
11124;BME280;5616;42.692;23.312;2022-07-22T05:25:21;95269.59;;;23.88;52.08
11124;BME280;5616;42.692;23.312;2022-07-22T05:27:52;95274.97;;;24.13;50.98
11124;BME280;5616;42.692;23.312;2022-07-22T05:30:47;95275.31;;;24.52;49.91
11124;BME280;5616;42.692;23.312;2022-07-22T05:33:14;95263.72;;;24.68;50.25
11124;BME280;5616;42.692;23.312;2022-07-22T05:36:00;95265.84;;;24.91;49.18
11124;BME280;5616;42.692;23.312;2022-07-22T05:38:35;95272.72;;;24.87;49.25
11124;BME280;5616;42.692;23.312;2022-07-22T05:41:02;95274.28;;;25.13;47.43
11124;BME280;5616;42.692;23.312;2022-07-22T05:43:30;95257.56;;;25.53;46.24
11124;BME280;5616;42.692;23.312;2022-07-22T05:45:58;95268.56;;;25.85;45.77
11124;BME280;5616;42.692;23.312;2022-07-22T05:48:25;95271.63;;;26.18;44.83
11124;BME280;5616;42.692;23.312;2022-07-22T05:50:52;95270.69;;;26.37;45.66
11124;BME280;5616;42.692;23.312;2022-07-22T05:53:19;95271.47;;;26.77;45.36
11124;BME280;5616;42.692;23.312;2022-07-22T05:55:47;95268.84;;;27.10;42.32
11124;BME280;5616;42.692;23.312;2022-07-22T05:58:14;95265.38;;;27.39;43.93
11124;BME280;5616;42.692;23.312;2022-07-22T06:00:41;95263.34;;;27.59;41.53
11124;BME280;5616;42.692;23.312;2022-07-22T06:03:09;95263.63;;;28.00;41.33
11124;BME280;5616;42.692;23.312;2022-07-22T06:05:36;95269.06;;;28.32;39.93
11124;BME280;5616;42.692;23.312;2022-07-22T06:08:06;95259.94;;;28.57;40.33
11124;BME280;5616;42.692;23.312;2022-07-22T06:10:49;95263.38;;;29.08;39.76
11124;BME280;5616;42.692;23.312;2022-07-22T06:13:17;95273.16;;;29.59;39.21
11124;BME280;5616;42.692;23.312;2022-07-22T06:15:44;95267.94;;;30.08;38.69
11124;BME280;5616;42.692;23.312;2022-07-22T06:18:13;95264.09;;;30.50;36.35
11124;BME280;5616;42.692;23.312;2022-07-22T06:20:40;95261.69;;;30.84;34.68
11124;BME280;5616;42.692;23.312;2022-07-22T06:23:07;95267.41;;;31.14;35.47
11124;BME280;5616;42.692;23.312;2022-07-22T06:25:34;95264.53;;;31.55;35.52
11124;BME280;5616;42.692;23.312;2022-07-22T06:28:01;95262.38;;;32.22;32.74
11124;BME280;5616;42.692;23.312;2022-07-22T06:30:28;95265.75;;;32.79;31.47
11124;BME280;5616;42.692;23.312;2022-07-22T06:32:55;95271.38;;;32.94;31.77
11124;BME280;5616;42.692;23.312;2022-07-22T06:35:24;95265.50;;;33.35;30.90
11124;BME280;5616;42.692;23.312;2022-07-22T06:37:51;95271.28;;;33.92;28.93
11124;BME280;5616;42.692;23.312;2022-07-22T06:40:19;95274.06;;;34.33;28.57
11124;BME280;5616;42.692;23.312;2022-07-22T06:42:55;95271.34;;;34.83;29.07
11124;BME280;5616;42.692;23.312;2022-07-22T06:45:30;95276.78;;;35.28;28.17
11124;BME280;5616;42.692;23.312;2022-07-22T06:48:18;95274.78;;;35.82;28.43
11124;BME280;5616;42.692;23.312;2022-07-22T06:50:46;95280.81;;;36.28;26.28
11124;BME280;5616;42.692;23.312;2022-07-22T06:53:16;95265.75;;;36.63;26.98
11124;BME280;5616;42.692;23.312;2022-07-22T06:55:43;95276.50;;;37.03;26.39
11124;BME280;5616;42.692;23.312;2022-07-22T06:58:11;95262.81;;;37.23;25.35
11124;BME280;5616;42.692;23.312;2022-07-22T07:00:38;95273.03;;;37.02;25.12
11124;BME280;5616;42.692;23.312;2022-07-22T07:03:25;95269.59;;;37.76;23.93
11124;BME280;5616;42.692;23.312;2022-07-22T07:05:58;95285.34;;;38.56;22.79
11124;BME280;5616;42.692;23.312;2022-07-22T07:08:29;95273.19;;;39.42;22.30
11124;BME280;5616;42.692;23.312;2022-07-22T07:10:56;95277.06;;;41.28;20.12
11124;BME280;5616;42.692;23.312;2022-07-22T07:13:23;95275.97;;;42.82;19.28
11124;BME280;5616;42.692;23.312;2022-07-22T07:15:50;95285.97;;;44.46;17.59
11124;BME280;5616;42.692;23.312;2022-07-22T07:18:17;95290.94;;;45.73;16.27
11124;BME280;5616;42.692;23.312;2022-07-22T07:20:44;95279.56;;;46.26;16.33
11124;BME280;5616;42.692;23.312;2022-07-22T07:23:14;95279.94;;;47.33;15.40
11124;BME280;5616;42.692;23.312;2022-07-22T07:25:44;95281.63;;;48.03;14.82
11124;BME280;5616;42.692;23.312;2022-07-22T07:28:11;95285.31;;;48.82;13.96
11124;BME280;5616;42.692;23.312;2022-07-22T07:31:04;95286.84;;;49.94;13.73
11124;BME280;5616;42.692;23.312;2022-07-22T07:33:31;95285.06;;;50.49;13.47
11124;BME280;5616;42.692;23.312;2022-07-22T07:35:58;95281.16;;;51.32;11.95
11124;BME280;5616;42.692;23.312;2022-07-22T07:38:47;95274.69;;;52.02;11.78
11124;BME280;5616;42.692;23.312;2022-07-22T07:41:15;95280.22;;;52.36;11.42
11124;BME280;5616;42.692;23.312;2022-07-22T07:43:43;95278.69;;;52.57;11.37
11124;BME280;5616;42.692;23.312;2022-07-22T07:46:11;95278.97;;;51.78;11.09
11124;BME280;5616;42.692;23.312;2022-07-22T07:48:39;95280.06;;;52.53;11.71
11124;BME280;5616;42.692;23.312;2022-07-22T07:51:06;95274.19;;;52.29;12.51
11124;BME280;5616;42.692;23.312;2022-07-22T07:53:33;95288.63;;;52.33;12.23
11124;BME280;5616;42.692;23.312;2022-07-22T07:56:02;95283.94;;;52.98;11.41
11124;BME280;5616;42.692;23.312;2022-07-22T07:58:29;95283.13;;;53.41;11.83
11124;BME280;5616;42.692;23.312;2022-07-22T08:00:56;95281.88;;;53.33;10.57
11124;BME280;5616;42.692;23.312;2022-07-22T08:03:24;95277.91;;;53.13;10.76
11124;BME280;5616;42.692;23.312;2022-07-22T08:05:51;95281.59;;;53.80;10.33
11124;BME280;5616;42.692;23.312;2022-07-22T08:08:24;95275.53;;;53.94;11.22
11124;BME280;5616;42.692;23.312;2022-07-22T08:10:52;95274.03;;;53.62;10.61
11124;BME280;5616;42.692;23.312;2022-07-22T08:13:33;95275.16;;;53.83;10.60
11124;BME280;5616;42.692;23.312;2022-07-22T08:16:20;95269.53;;;53.87;9.67
11124;BME280;5616;42.692;23.312;2022-07-22T08:18:47;95275.44;;;53.36;9.71
11124;BME280;5616;42.692;23.312;2022-07-22T08:21:14;95271.59;;;53.12;10.35
11124;BME280;5616;42.692;23.312;2022-07-22T08:23:54;95272.25;;;53.16;11.18
11124;BME280;5616;42.692;23.312;2022-07-22T08:26:22;95271.66;;;53.21;10.41
11124;BME280;5616;42.692;23.312;2022-07-22T08:28:51;95280.03;;;52.65;9.52
11124;BME280;5616;42.692;23.312;2022-07-22T08:31:18;95269.41;;;51.70;10.47
11124;BME280;5616;42.692;23.312;2022-07-22T08:33:47;95270.34;;;52.14;12.20
11124;BME280;5616;42.692;23.312;2022-07-22T08:36:14;95271.03;;;51.92;10.68
11124;BME280;5616;42.692;23.312;2022-07-22T08:38:41;95269.19;;;51.64;10.66
11124;BME280;5616;42.692;23.312;2022-07-22T08:41:08;95270.78;;;51.24;12.23
11124;BME280;5616;42.692;23.312;2022-07-22T08:43:36;95261.94;;;51.04;11.27
11124;BME280;5616;42.692;23.312;2022-07-22T08:46:07;95259.91;;;51.46;11.64
11124;BME280;5616;42.692;23.312;2022-07-22T08:49:00;95258.38;;;51.45;11.78
11124;BME280;5616;42.692;23.312;2022-07-22T08:51:54;95271.72;;;51.84;11.28
11124;BME280;5616;42.692;23.312;2022-07-22T08:54:26;95270.03;;;51.74;11.67
11124;BME280;5616;42.692;23.312;2022-07-22T08:56:54;95269.56;;;51.25;11.17
11124;BME280;5616;42.692;23.312;2022-07-22T08:59:23;95263.78;;;51.35;11.20
11124;BME280;5616;42.692;23.312;2022-07-22T09:02:05;95266.44;;;51.39;11.75
11124;BME280;5616;42.692;23.312;2022-07-22T09:04:54;95269.06;;;51.55;11.85
11124;BME280;5616;42.692;23.312;2022-07-22T09:07:26;95267.75;;;51.72;11.45
11124;BME280;5616;42.692;23.312;2022-07-22T09:09:55;95267.94;;;51.27;10.99
11124;BME280;5616;42.692;23.312;2022-07-22T09:12:53;95266.59;;;51.07;11.04
11124;BME280;5616;42.692;23.312;2022-07-22T09:15:50;95263.06;;;51.06;12.50
11124;BME280;5616;42.692;23.312;2022-07-22T09:18:48;95267.59;;;51.13;12.16
11124;BME280;5616;42.692;23.312;2022-07-22T09:21:21;95274.16;;;50.45;12.60
11124;BME280;5616;42.692;23.312;2022-07-22T09:24:29;95274.31;;;49.93;12.48
11124;BME280;5616;42.692;23.312;2022-07-22T09:27:05;95263.41;;;48.63;13.86
11124;BME280;5616;42.692;23.312;2022-07-22T09:29:48;95261.47;;;46.42;14.68
11124;BME280;5616;42.692;23.312;2022-07-22T09:32:17;95258.94;;;46.92;13.95
11124;BME280;5616;42.692;23.312;2022-07-22T09:35:09;95257.06;;;47.19;13.41
11124;BME280;5616;42.692;23.312;2022-07-22T09:37:53;95255.59;;;46.44;14.31
11124;BME280;5616;42.692;23.312;2022-07-22T09:40:23;95255.47;;;44.96;16.17
11124;BME280;5616;42.692;23.312;2022-07-22T09:42:51;95257.16;;;43.39;16.81
11124;BME280;5616;42.692;23.312;2022-07-22T09:45:20;95252.53;;;41.95;19.27
11124;BME280;5616;42.692;23.312;2022-07-22T09:47:48;95258.56;;;40.15;19.83
11124;BME280;5616;42.692;23.312;2022-07-22T09:50:33;95246.25;;;39.07;20.40
11124;BME280;5616;42.692;23.312;2022-07-22T09:53:21;95243.56;;;38.69;20.91
11124;BME280;5616;42.692;23.312;2022-07-22T09:55:58;95228.50;;;38.14;22.63
11124;BME280;5616;42.692;23.312;2022-07-22T09:58:25;95234.66;;;38.15;21.80
11124;BME280;5616;42.692;23.312;2022-07-22T10:00:53;95236.19;;;37.96;21.96
11124;BME280;5616;42.692;23.312;2022-07-22T10:03:25;95231.06;;;37.76;24.20
11124;BME280;5616;42.692;23.312;2022-07-22T10:05:56;95227.88;;;37.11;23.52
11124;BME280;5616;42.692;23.312;2022-07-22T10:08:24;95235.41;;;36.50;23.40
11124;BME280;5616;42.692;23.312;2022-07-22T10:10:52;95225.06;;;36.52;23.21
11124;BME280;5616;42.692;23.312;2022-07-22T10:13:19;95222.88;;;36.70;24.98
11124;BME280;5616;42.692;23.312;2022-07-22T10:15:47;95221.25;;;36.81;24.44
11124;BME280;5616;42.692;23.312;2022-07-22T10:18:16;95232.03;;;36.53;23.53
11124;BME280;5616;42.692;23.312;2022-07-22T10:20:46;95218.63;;;36.17;23.73
11124;BME280;5616;42.692;23.312;2022-07-22T10:23:14;95231.41;;;36.20;22.91
11124;BME280;5616;42.692;23.312;2022-07-22T10:25:50;95221.44;;;36.20;22.90
11124;BME280;5616;42.692;23.312;2022-07-22T10:28:23;95221.63;;;36.28;24.52
11124;BME280;5616;42.692;23.312;2022-07-22T10:30:51;95209.75;;;36.29;24.96
11124;BME280;5616;42.692;23.312;2022-07-22T10:33:19;95208.91;;;36.12;23.75
11124;BME280;5616;42.692;23.312;2022-07-22T10:35:55;95201.94;;;36.11;23.89
11124;BME280;5616;42.692;23.312;2022-07-22T10:38:24;95211.47;;;36.09;23.38
11124;BME280;5616;42.692;23.312;2022-07-22T10:40:54;95208.91;;;36.12;23.85
11124;BME280;5616;42.692;23.312;2022-07-22T10:43:22;95210.22;;;36.18;25.62
11124;BME280;5616;42.692;23.312;2022-07-22T10:45:51;95208.22;;;36.15;23.91
11124;BME280;5616;42.692;23.312;2022-07-22T10:48:21;95208.09;;;36.00;25.03
11124;BME280;5616;42.692;23.312;2022-07-22T10:53:40;95214.72;;;35.78;23.68
11124;BME280;5616;42.692;23.312;2022-07-22T10:56:13;95210.47;;;35.77;25.17
11124;BME280;5616;42.692;23.312;2022-07-22T10:58:42;95208.47;;;35.74;24.14
11124;BME280;5616;42.692;23.312;2022-07-22T11:01:11;95206.91;;;35.73;24.02
11124;BME280;5616;42.692;23.312;2022-07-22T11:03:40;95195.34;;;35.73;24.20
11124;BME280;5616;42.692;23.312;2022-07-22T11:06:17;95201.97;;;35.75;25.74
11124;BME280;5616;42.692;23.312;2022-07-22T11:08:47;95201.75;;;35.68;25.70
11124;BME280;5616;42.692;23.312;2022-07-22T11:11:15;95201.88;;;35.72;25.06
11124;BME280;5616;42.692;23.312;2022-07-22T11:13:43;95200.28;;;35.83;26.17
11124;BME280;5616;42.692;23.312;2022-07-22T11:16:18;95194.00;;;35.91;25.61
11124;BME280;5616;42.692;23.312;2022-07-22T11:18:51;95205.75;;;35.86;23.73
11124;BME280;5616;42.692;23.312;2022-07-22T11:21:20;95195.44;;;36.00;23.11
11124;BME280;5616;42.692;23.312;2022-07-22T11:23:50;95198.81;;;36.09;24.32
11124;BME280;5616;42.692;23.312;2022-07-22T11:26:19;95191.28;;;36.15;23.62
11124;BME280;5616;42.692;23.312;2022-07-22T11:28:50;95183.34;;;36.18;24.03
11124;BME280;5616;42.692;23.312;2022-07-22T11:31:18;95194.53;;;36.20;22.83
11124;BME280;5616;42.692;23.312;2022-07-22T11:33:45;95195.75;;;36.23;22.59
11124;BME280;5616;42.692;23.312;2022-07-22T11:36:12;95198.44;;;36.23;24.50
11124;BME280;5616;42.692;23.312;2022-07-22T11:38:45;95187.94;;;36.18;23.05
11124;BME280;5616;42.692;23.312;2022-07-22T11:41:15;95193.13;;;36.11;24.40
11124;BME280;5616;42.692;23.312;2022-07-22T11:43:43;95192.53;;;36.17;23.89
11124;BME280;5616;42.692;23.312;2022-07-22T11:46:11;95180.66;;;36.18;23.73
11124;BME280;5616;42.692;23.312;2022-07-22T11:48:39;95186.41;;;36.33;23.61
11124;BME280;5616;42.692;23.312;2022-07-22T11:51:07;95189.72;;;36.26;23.38
11124;BME280;5616;42.692;23.312;2022-07-22T11:53:36;95183.09;;;36.24;24.06
11124;BME280;5616;42.692;23.312;2022-07-22T11:56:04;95184.31;;;36.26;24.51
11124;BME280;5616;42.692;23.312;2022-07-22T11:58:38;95181.03;;;36.33;23.20
11124;BME280;5616;42.692;23.312;2022-07-22T12:01:06;95177.28;;;36.22;24.34
11124;BME280;5616;42.692;23.312;2022-07-22T12:03:35;95182.59;;;36.06;23.35
11124;BME280;5616;42.692;23.312;2022-07-22T12:06:03;95177.88;;;35.91;26.17
11124;BME280;5616;42.692;23.312;2022-07-22T12:08:31;95174.75;;;35.89;24.22
11124;BME280;5616;42.692;23.312;2022-07-22T12:10:59;95171.69;;;35.90;24.57
11124;BME280;5616;42.692;23.312;2022-07-22T12:13:30;95176.78;;;35.80;24.76
11124;BME280;5616;42.692;23.312;2022-07-22T12:15:59;95180.25;;;35.68;23.52
11124;BME280;5616;42.692;23.312;2022-07-22T12:18:27;95173.44;;;35.58;25.53
11124;BME280;5616;42.692;23.312;2022-07-22T12:20:55;95171.19;;;35.60;23.92
11124;BME280;5616;42.692;23.312;2022-07-22T12:23:24;95174.44;;;35.66;23.82
11124;BME280;5616;42.692;23.312;2022-07-22T12:25:54;95174.53;;;35.45;25.03
11124;BME280;5616;42.692;23.312;2022-07-22T12:28:22;95159.75;;;35.39;24.09
11124;BME280;5616;42.692;23.312;2022-07-22T12:30:49;95166.44;;;35.33;26.02
11124;BME280;5616;42.692;23.312;2022-07-22T12:33:19;95176.88;;;35.35;25.58
11124;BME280;5616;42.692;23.312;2022-07-22T12:35:58;95171.84;;;35.45;24.84
11124;BME280;5616;42.692;23.312;2022-07-22T12:38:26;95161.75;;;35.42;24.19
11124;BME280;5616;42.692;23.312;2022-07-22T12:40:53;95165.34;;;35.46;25.72
11124;BME280;5616;42.692;23.312;2022-07-22T12:43:24;95166.56;;;35.49;24.79
11124;BME280;5616;42.692;23.312;2022-07-22T12:45:51;95162.31;;;35.48;24.40
11124;BME280;5616;42.692;23.312;2022-07-22T12:48:19;95146.09;;;35.44;25.13
11124;BME280;5616;42.692;23.312;2022-07-22T12:50:55;95158.53;;;35.61;25.40
11124;BME280;5616;42.692;23.312;2022-07-22T12:53:24;95158.53;;;35.61;23.21
11124;BME280;5616;42.692;23.312;2022-07-22T12:55:53;95159.00;;;35.63;25.09
11124;BME280;5616;42.692;23.312;2022-07-22T12:58:22;95161.31;;;35.52;23.49
11124;BME280;5616;42.692;23.312;2022-07-22T13:00:52;95160.41;;;35.36;23.19
11124;BME280;5616;42.692;23.312;2022-07-22T13:03:21;95158.50;;;35.13;23.74
11124;BME280;5616;42.692;23.312;2022-07-22T13:05:54;95153.41;;;34.99;23.66
11124;BME280;5616;42.692;23.312;2022-07-22T13:08:21;95158.94;;;35.15;24.14
11124;BME280;5616;42.692;23.312;2022-07-22T13:10:49;95155.81;;;35.13;24.60
11124;BME280;5616;42.692;23.312;2022-07-22T13:13:17;95158.97;;;35.27;24.17
11124;BME280;5616;42.692;23.312;2022-07-22T13:15:45;95168.59;;;35.40;24.18
11124;BME280;5616;42.692;23.312;2022-07-22T13:18:12;95153.16;;;35.37;23.37